RJGG(METAR)
07/17 15:30
METAR RJGG 170630Z 17014KT 9999 FEW010 SCT/// 27/23 Q1012 NOSIG RMK
1CU010 A2990=
戻る
トップページへ戻る
IMOC Co,.Ltd.